createdAt,value
2019-01-16T00:04:15.500Z,7.90
2019-01-16T00:07:23.321Z,5.83
2019-01-16T00:13:30.206Z,5.50
2019-01-16T00:16:30.581Z,9.07
2019-01-16T00:22:47.821Z,10.85
2019-01-16T00:25:55.652Z,7.23
2019-01-16T00:29:03.489Z,11.17
2019-01-16T00:35:00.008Z,5.50
2019-01-16T00:38:07.818Z,8.63
2019-01-16T00:41:15.640Z,6.40
2019-01-16T00:44:23.542Z,5.70
2019-01-16T00:47:31.361Z,7.70
2019-01-16T00:50:39.436Z,7.87
2019-01-16T00:59:42.131Z,6.30
2019-01-16T01:02:49.971Z,2.90
2019-01-16T01:08:53.544Z,5.50
2019-01-16T01:12:01.428Z,5.57
2019-01-16T01:15:02.433Z,7.40
2019-01-16T01:18:10.263Z,9.90
2019-01-16T01:21:18.327Z,7.47
2019-01-16T01:24:26.167Z,6.23
2019-01-16T01:27:33.981Z,6.90
2019-01-16T01:30:41.849Z,6.07
2019-01-16T01:33:49.674Z,5.43
2019-01-16T01:36:57.511Z,4.63
2019-01-16T01:40:05.347Z,5.03
2019-01-16T01:46:22.556Z,7.70
2019-01-16T01:49:30.443Z,9.30
2019-01-16T01:52:38.516Z,5.87
2019-01-16T02:01:51.415Z,7.37
2019-01-16T02:04:59.487Z,6.20
2019-01-16T02:14:02.268Z,5.20
2019-01-16T02:16:45.969Z,8.00
2019-01-16T02:19:53.786Z,7.37
2019-01-16T02:23:01.614Z,6.70
2019-01-16T02:26:09.439Z,8.70
2019-01-16T02:29:17.251Z,6.73
2019-01-16T02:32:25.085Z,6.20
2019-01-16T02:35:08.016Z,5.07
2019-01-16T02:38:15.847Z,6.80
2019-01-16T02:41:23.925Z,4.27
2019-01-16T02:44:31.765Z,6.07
2019-01-16T02:47:39.585Z,9.50
2019-01-16T02:50:47.432Z,8.03
2019-01-16T02:53:55.247Z,4.23
2019-01-16T02:57:03.084Z,6.90
2019-01-16T03:03:20.295Z,4.90
2019-01-16T03:06:28.366Z,4.27
2019-01-16T03:12:31.915Z,5.37
2019-01-16T03:15:11.470Z,8.70
2019-01-16T03:27:24.097Z,6.43
2019-01-16T03:30:32.002Z,4.50
2019-01-16T03:33:39.820Z,4.27
2019-01-16T03:36:47.648Z,3.80
2019-01-16T03:39:55.461Z,5.60
2019-01-16T03:43:03.296Z,3.00
2019-01-16T03:46:11.111Z,6.43
2019-01-16T03:55:14.114Z,8.27
2019-01-16T03:58:21.996Z,4.47
2019-01-16T04:01:29.832Z,3.23
2019-01-16T04:07:33.529Z,4.13
2019-01-16T04:13:37.126Z,3.93
2019-01-16T04:16:37.404Z,7.87
2019-01-16T04:19:45.254Z,5.20
2019-01-16T04:31:43.274Z,11.23
2019-01-16T04:34:51.098Z,13.20
2019-01-16T04:40:58.200Z,8.57
2019-01-16T04:47:16.984Z,7.87
2019-01-16T04:50:45.822Z,4.80
2019-01-16T04:53:53.647Z,7.77
2019-01-16T04:57:01.467Z,8.30
2019-01-16T05:00:09.300Z,4.57
2019-01-16T05:03:17.109Z,4.00
2019-01-16T05:09:45.229Z,3.80
2019-01-16T05:12:53.089Z,4.80
2019-01-16T05:16:00.931Z,5.83
2019-01-16T05:19:01.502Z,10.30
2019-01-16T05:22:09.346Z,9.17
2019-01-16T05:28:26.559Z,5.87
2019-01-16T05:31:35.668Z,3.90
2019-01-16T05:34:43.932Z,7.07
2019-01-16T05:41:01.169Z,5.53
2019-01-16T05:47:18.362Z,5.70
2019-01-16T05:53:56.471Z,7.63
2019-01-16T05:57:04.291Z,6.10
2019-01-16T06:00:12.124Z,6.13
2019-01-16T06:03:19.939Z,5.10
2019-01-16T06:09:44.116Z,5.57
2019-01-16T06:12:51.930Z,4.00
2019-01-16T06:18:48.786Z,6.80
2019-01-16T06:24:52.389Z,14.93
2019-01-16T06:28:00.205Z,9.98
2019-01-16T06:34:07.105Z,4.83
2019-01-16T06:36:50.128Z,5.60
2019-01-16T06:39:57.944Z,4.90
2019-01-16T06:43:05.771Z,4.67
2019-01-16T06:45:54.328Z,15.53
2019-01-16T06:49:02.162Z,6.07
2019-01-16T06:55:19.389Z,8.70
2019-01-16T06:58:27.269Z,7.30
2019-01-16T07:07:33.363Z,5.83
2019-01-16T07:10:41.194Z,6.87
2019-01-16T07:13:49.028Z,8.57
2019-01-16T07:16:57.140Z,9.37
2019-01-16T07:20:09.610Z,8.40
2019-01-16T07:23:14.516Z,11.93
2019-01-16T07:29:31.733Z,9.77
2019-01-16T07:32:39.549Z,7.37
2019-01-16T07:35:47.633Z,7.40
2019-01-16T07:42:03.542Z,9.67
2019-01-16T07:45:11.348Z,9.00
2019-01-16T07:48:19.181Z,9.97
2019-01-16T07:51:26.992Z,8.90
2019-01-16T07:54:15.484Z,11.37
2019-01-16T07:57:23.373Z,8.77
2019-01-16T08:00:52.125Z,10.57
2019-01-16T08:03:59.944Z,8.87
2019-01-16T08:10:03.533Z,12.10
2019-01-16T08:12:52.082Z,7.97
2019-01-16T08:21:34.359Z,16.03
2019-01-16T08:24:42.189Z,13.73
2019-01-16T08:27:50.019Z,9.00
2019-01-16T08:34:07.399Z,7.67
2019-01-16T08:37:15.244Z,8.63
2019-01-16T08:40:43.972Z,8.40
2019-01-16T08:46:41.850Z,10.30
2019-01-16T08:49:49.669Z,7.83
2019-01-16T08:52:57.507Z,13.53
2019-01-16T08:56:05.352Z,11.50
2019-01-16T09:02:22.701Z,11.00
2019-01-16T09:05:30.687Z,11.57
2019-01-16T09:11:37.868Z,9.30
2019-01-16T09:14:45.687Z,20.00
2019-01-16T09:17:53.523Z,11.87
2019-01-16T09:20:54.445Z,14.37
2019-01-16T09:27:01.357Z,8.70
2019-01-16T09:33:18.555Z,7.47
2019-01-16T09:36:26.385Z,9.10
2019-01-16T09:39:34.208Z,6.77
2019-01-16T09:42:42.044Z,10.63
2019-01-16T09:45:49.866Z,15.10
2019-01-16T09:48:57.705Z,13.00
2019-01-16T09:52:05.523Z,11.40
2019-01-16T09:55:13.355Z,8.90
2019-01-16T09:58:21.181Z,12.87
2019-01-16T10:01:29.012Z,11.63
2019-01-16T10:04:36.850Z,12.90
2019-01-16T10:07:44.662Z,12.67
2019-01-16T10:10:52.491Z,13.73
2019-01-16T10:14:00.329Z,13.63
2019-01-16T10:17:08.427Z,14.77
2019-01-16T10:20:16.247Z,15.00
2019-01-16T10:23:02.298Z,16.77
2019-01-16T10:26:10.118Z,19.00
2019-01-16T10:29:17.953Z,17.00
2019-01-16T10:35:35.319Z,14.23
2019-01-16T10:38:43.142Z,16.50
2019-01-16T10:41:50.969Z,17.00
2019-01-16T10:44:58.784Z,16.93
2019-01-16T10:48:06.617Z,19.97
2019-01-16T10:54:23.977Z,22.53
2019-01-16T10:57:31.785Z,18.90
2019-01-16T11:00:39.692Z,19.90
2019-01-16T11:03:47.508Z,22.23
2019-01-16T11:06:55.345Z,21.13
2019-01-16T11:16:11.774Z,29.50
2019-01-16T11:19:12.013Z,20.07
2019-01-16T11:22:19.841Z,20.50
2019-01-16T11:25:48.572Z,18.80
2019-01-16T11:28:56.397Z,21.20
2019-01-16T11:35:13.674Z,33.00
2019-01-16T11:38:02.235Z,16.37
2019-01-16T11:41:10.136Z,20.13
2019-01-16T11:44:18.198Z,19.90
2019-01-16T11:47:26.044Z,21.80
2019-01-16T11:50:33.923Z,13.23
2019-01-16T11:53:41.763Z,18.93
2019-01-16T11:59:45.254Z,16.07
2019-01-16T12:02:53.089Z,18.33
2019-01-16T12:06:00.987Z,17.20
2019-01-16T12:09:08.820Z,16.67
2019-01-16T12:18:42.718Z,18.48
2019-01-16T12:21:26.595Z,14.70
2019-01-16T12:24:34.629Z,19.50
2019-01-16T12:27:42.470Z,20.03
2019-01-16T12:33:59.680Z,12.73
2019-01-16T12:37:07.490Z,21.90
2019-01-16T12:40:15.328Z,14.00
2019-01-16T12:46:51.553Z,19.57
2019-01-16T12:56:07.795Z,19.83
2019-01-16T13:02:07.549Z,17.40
2019-01-16T13:05:15.468Z,20.23
2019-01-16T13:08:23.439Z,12.27
2019-01-16T13:20:14.974Z,17.07
2019-01-16T13:23:22.804Z,15.23
2019-01-16T13:29:40.176Z,11.03
2019-01-16T13:32:47.991Z,21.33
2019-01-16T13:35:55.844Z,10.73
2019-01-16T13:39:03.695Z,13.37
2019-01-16T13:41:49.575Z,14.90
2019-01-16T13:44:57.641Z,11.13
2019-01-16T13:51:04.681Z,20.50
2019-01-16T13:54:12.577Z,12.90
2019-01-16T13:57:20.408Z,15.90
2019-01-16T14:00:49.149Z,14.97
2019-01-16T14:06:52.692Z,14.80
2019-01-16T14:12:56.269Z,9.78
2019-01-16T14:19:00.016Z,14.90
2019-01-16T14:25:17.230Z,18.00
2019-01-16T14:28:25.212Z,15.20
2019-01-16T14:31:33.116Z,13.50
2019-01-16T14:34:41.097Z,11.23
2019-01-16T14:37:48.937Z,17.50
2019-01-16T14:44:04.432Z,11.50
2019-01-16T14:47:12.247Z,17.30
2019-01-16T14:56:12.002Z,23.50
2019-01-16T14:59:19.810Z,10.13
2019-01-16T15:08:39.116Z,13.13
2019-01-16T15:11:46.925Z,9.53
2019-01-16T15:14:54.771Z,13.97
2019-01-16T15:18:02.587Z,13.33
2019-01-16T15:21:10.427Z,12.83
2019-01-16T15:24:10.852Z,15.20
2019-01-16T15:27:18.691Z,15.07
2019-01-16T15:30:45.847Z,9.63
2019-01-16T15:33:53.676Z,12.70
2019-01-16T15:39:38.565Z,12.13
2019-01-16T15:42:46.385Z,11.50
2019-01-16T15:45:54.230Z,17.23
2019-01-16T15:52:13.169Z,15.87
2019-01-16T15:55:21.246Z,9.80
2019-01-16T16:01:28.360Z,13.17
2019-01-16T16:04:36.175Z,15.27
2019-01-16T16:10:42.252Z,12.27
2019-01-16T16:13:50.036Z,11.53
2019-01-16T16:16:57.874Z,16.13
2019-01-16T16:20:05.693Z,16.37
2019-01-16T16:23:13.529Z,13.62
2019-01-16T16:29:30.748Z,16.33
2019-01-16T16:32:38.561Z,7.75
2019-01-16T16:35:46.400Z,9.03
2019-01-16T16:38:54.208Z,14.27
2019-01-16T16:41:55.244Z,19.83
2019-01-16T16:48:12.455Z,15.67
2019-01-16T16:51:20.268Z,10.23
2019-01-16T16:57:07.731Z,14.50
2019-01-16T17:00:15.565Z,13.50
2019-01-16T17:03:22.652Z,13.47
2019-01-16T17:06:30.514Z,11.70
2019-01-16T17:12:47.751Z,15.88
2019-01-16T17:15:55.614Z,18.10
2019-01-16T17:21:38.329Z,12.07
2019-01-16T17:27:55.683Z,16.63
2019-01-16T17:31:03.588Z,13.93
2019-01-16T17:34:11.490Z,12.90
2019-01-16T17:37:19.338Z,12.60
2019-01-16T17:40:48.130Z,11.93
2019-01-16T17:43:55.974Z,27.03
2019-01-16T17:47:03.935Z,15.00
2019-01-16T17:53:21.267Z,18.67
2019-01-16T17:56:29.078Z,12.80
2019-01-16T17:59:37.229Z,17.20
2019-01-16T18:09:14.818Z,14.30
2019-01-16T18:21:17.260Z,16.10
2019-01-16T18:24:25.190Z,12.33
2019-01-16T18:27:33.114Z,15.68
2019-01-16T18:30:41.052Z,20.83
2019-01-16T18:33:49.014Z,15.40
2019-01-16T18:40:06.443Z,19.93
2019-01-16T18:43:14.478Z,16.75
2019-01-16T18:46:22.426Z,21.93
2019-01-16T18:49:30.434Z,20.73
2019-01-16T18:52:38.380Z,25.82
2019-01-16T18:55:46.271Z,16.77
2019-01-16T18:58:54.251Z,16.90
2019-01-16T19:02:02.283Z,16.40
2019-01-16T19:05:10.379Z,19.10
2019-01-16T19:08:18.516Z,24.40
2019-01-16T19:11:26.487Z,14.10
2019-01-16T19:14:34.623Z,17.50
2019-01-16T19:17:42.869Z,18.77
2019-01-16T19:20:51.162Z,20.97
2019-01-16T19:23:52.686Z,24.33
2019-01-16T19:30:32.033Z,25.50
2019-01-16T19:39:50.037Z,18.10
2019-01-16T19:48:53.248Z,24.93
2019-01-16T19:52:01.847Z,24.63
2019-01-16T19:58:19.678Z,15.90
2019-01-16T20:04:37.070Z,19.20
2019-01-16T20:10:54.858Z,20.63
2019-01-16T20:14:02.898Z,29.67
2019-01-16T20:20:07.487Z,17.57
2019-01-16T20:22:54.827Z,20.57
2019-01-16T20:26:03.487Z,25.43
2019-01-16T20:29:31.426Z,20.40
2019-01-16T20:39:03.881Z,21.20
2019-01-16T20:41:53.163Z,18.90
2019-01-16T20:45:01.282Z,32.57
2019-01-16T20:48:09.237Z,28.43
2019-01-16T20:51:17.094Z,19.10
2019-01-16T20:57:34.577Z,24.77
2019-01-16T21:00:23.251Z,23.13
2019-01-16T21:03:31.238Z,28.73
2019-01-16T21:06:39.095Z,17.30
2019-01-16T21:09:25.340Z,19.80
2019-01-16T21:12:33.547Z,15.77
2019-01-16T21:15:41.536Z,20.30
2019-01-16T21:18:49.424Z,17.53
2019-01-16T21:24:56.629Z,17.97
2019-01-16T21:28:04.495Z,14.27
2019-01-16T21:31:12.334Z,16.20
2019-01-16T21:37:37.136Z,21.40
2019-01-16T21:40:44.950Z,16.40
2019-01-16T21:43:52.783Z,20.40
2019-01-16T21:47:01.683Z,25.90
2019-01-16T21:50:09.531Z,20.10
2019-01-16T21:53:17.442Z,18.60
2019-01-16T21:56:05.997Z,17.60
2019-01-16T21:59:13.887Z,21.50
2019-01-16T22:02:21.726Z,18.77
2019-01-16T22:05:29.618Z,19.90
2019-01-16T22:11:36.351Z,16.97
2019-01-16T22:14:44.189Z,27.70
2019-01-16T22:17:52.073Z,26.77
2019-01-16T22:20:59.911Z,26.13
2019-01-16T22:24:07.723Z,17.90
2019-01-16T22:27:15.554Z,18.60
2019-01-16T22:30:44.287Z,18.23
2019-01-16T22:33:52.188Z,20.20
2019-01-16T22:37:00.006Z,23.30
2019-01-16T22:40:07.846Z,14.77
2019-01-16T22:43:15.675Z,17.77
2019-01-16T22:46:23.562Z,20.27
2019-01-16T22:49:31.461Z,14.90
2019-01-16T22:52:39.277Z,16.63
2019-01-16T22:55:47.122Z,20.77
2019-01-16T23:05:03.375Z,19.37
2019-01-16T23:08:11.195Z,14.60
2019-01-16T23:11:12.148Z,17.10
2019-01-16T23:14:19.981Z,13.18
2019-01-16T23:17:27.818Z,19.13
2019-01-16T23:23:49.786Z,15.60
2019-01-16T23:26:54.554Z,16.10
2019-01-16T23:32:58.241Z,11.73
2019-01-16T23:36:06.078Z,14.37
2019-01-16T23:39:13.898Z,15.97
2019-01-16T23:42:21.736Z,12.30
2019-01-16T23:45:29.731Z,24.07
2019-01-16T23:48:37.569Z,14.80
2019-01-16T23:51:45.381Z,12.40
2019-01-16T23:54:53.220Z,28.50
2019-01-16T23:58:01.047Z,14.90
